createdAt,value
2023-01-07T00:01:15.208Z,3.78
2023-01-07T00:03:41.370Z,5.18
2023-01-07T00:06:07.545Z,3.22
2023-01-07T00:08:33.701Z,3.33
2023-01-07T00:10:59.803Z,4.20
2023-01-07T00:13:26.035Z,3.20
2023-01-07T00:15:52.216Z,3.47
2023-01-07T00:18:18.481Z,4.78
2023-01-07T00:20:44.742Z,5.90
2023-01-07T00:23:10.893Z,3.60
2023-01-07T00:25:37.037Z,3.60
2023-01-07T00:28:03.185Z,2.53
2023-01-07T00:30:29.341Z,5.68
2023-01-07T00:32:55.528Z,3.90
2023-01-07T00:35:21.667Z,3.10
2023-01-07T00:37:47.805Z,3.88
2023-01-07T00:40:13.967Z,3.20
2023-01-07T00:42:40.079Z,3.65
2023-01-07T00:45:06.210Z,3.15
2023-01-07T00:47:32.332Z,3.15
2023-01-07T00:49:58.453Z,6.53
2023-01-07T00:52:24.588Z,5.88
2023-01-07T00:54:50.722Z,3.38
2023-01-07T00:57:16.858Z,6.55
2023-01-07T00:59:43.041Z,2.88
2023-01-07T01:02:09.485Z,3.33
2023-01-07T01:04:35.733Z,5.95
2023-01-07T01:07:01.901Z,4.07
2023-01-07T01:09:28.065Z,2.65
2023-01-07T01:11:56.949Z,2.45
2023-01-07T01:14:23.057Z,17.33
2023-01-07T01:16:49.309Z,3.55
2023-01-07T01:19:15.457Z,3.65
2023-01-07T01:21:41.616Z,4.05
2023-01-07T01:24:07.836Z,2.72
2023-01-07T01:26:33.977Z,3.03
2023-01-07T01:29:00.121Z,3.78
2023-01-07T01:31:26.319Z,3.75
2023-01-07T01:33:52.478Z,2.83
2023-01-07T01:36:18.597Z,3.00
2023-01-07T01:38:44.757Z,2.80
2023-01-07T01:41:10.879Z,2.50
2023-01-07T01:43:37.003Z,5.07
2023-01-07T01:46:03.153Z,2.60
2023-01-07T01:48:29.281Z,2.92
2023-01-07T01:50:55.371Z,3.38
2023-01-07T01:53:21.507Z,3.50
2023-01-07T01:55:47.617Z,4.03
2023-01-07T01:58:13.776Z,3.38
2023-01-07T02:00:39.936Z,2.45
2023-01-07T02:03:06.084Z,2.90
2023-01-07T02:05:32.211Z,3.20
2023-01-07T02:07:58.378Z,3.08
2023-01-07T02:10:24.481Z,3.05
2023-01-07T02:12:50.609Z,2.45
2023-01-07T02:15:16.710Z,4.78
2023-01-07T02:17:42.837Z,4.40
2023-01-07T02:20:08.973Z,3.13
2023-01-07T02:22:35.090Z,3.33
2023-01-07T02:25:01.241Z,2.60
2023-01-07T02:27:27.413Z,2.97
2023-01-07T02:29:53.556Z,3.28
2023-01-07T02:32:19.677Z,3.40
2023-01-07T02:34:45.844Z,2.63
2023-01-07T02:37:11.996Z,1.95
2023-01-07T02:39:38.147Z,3.00
2023-01-07T02:42:04.266Z,3.03
2023-01-07T02:44:30.609Z,2.33
2023-01-07T02:46:56.723Z,2.70
2023-01-07T02:49:22.864Z,4.13
2023-01-07T02:51:49.000Z,3.50
2023-01-07T02:54:15.142Z,2.13
2023-01-07T02:56:41.268Z,3.10
2023-01-07T02:59:07.410Z,2.28
2023-01-07T03:01:33.593Z,1.95
2023-01-07T03:03:59.840Z,2.65
2023-01-07T03:06:26.011Z,2.45
2023-01-07T03:08:52.164Z,2.67
2023-01-07T03:11:18.273Z,2.03
2023-01-07T03:13:44.424Z,2.80
2023-01-07T03:16:10.561Z,2.25
2023-01-07T03:18:36.719Z,2.53
2023-01-07T03:21:02.861Z,2.92
2023-01-07T03:23:28.974Z,2.15
2023-01-07T03:25:55.120Z,4.35
2023-01-07T03:28:21.219Z,2.13
2023-01-07T03:30:47.360Z,3.42
2023-01-07T03:33:13.500Z,2.17
2023-01-07T03:35:39.619Z,2.05
2023-01-07T03:38:05.746Z,2.28
2023-01-07T03:40:31.984Z,2.55
2023-01-07T03:42:58.104Z,2.53
2023-01-07T03:45:24.261Z,1.75
2023-01-07T03:47:50.395Z,1.90
2023-01-07T03:50:16.522Z,3.83
2023-01-07T03:52:42.627Z,1.63
2023-01-07T03:55:08.780Z,2.47
2023-01-07T03:57:34.976Z,1.20
2023-01-07T04:00:01.201Z,2.20
2023-01-07T04:02:27.314Z,1.98
2023-01-07T04:04:53.456Z,1.83
2023-01-07T04:07:19.601Z,1.70
2023-01-07T04:09:45.723Z,2.10
2023-01-07T04:12:11.873Z,2.25
2023-01-07T04:14:38.016Z,1.80
2023-01-07T04:17:04.147Z,1.65
2023-01-07T04:19:30.283Z,1.50
2023-01-07T04:21:56.438Z,2.80
2023-01-07T04:24:22.553Z,2.25
2023-01-07T04:26:48.690Z,3.75
2023-01-07T04:29:14.871Z,3.08
2023-01-07T04:31:41.015Z,2.00
2023-01-07T04:34:07.155Z,1.88
2023-01-07T04:36:33.259Z,1.50
2023-01-07T04:38:59.402Z,1.85
2023-01-07T04:41:25.526Z,1.90
2023-01-07T04:43:51.672Z,2.40
2023-01-07T04:46:17.813Z,1.63
2023-01-07T04:48:44.029Z,1.23
2023-01-07T04:51:10.145Z,1.88
2023-01-07T04:53:36.265Z,1.92
2023-01-07T04:56:02.376Z,1.58
2023-01-07T04:58:28.522Z,1.40
2023-01-07T05:00:54.721Z,2.58
2023-01-07T05:03:20.921Z,2.60
2023-01-07T05:05:47.067Z,1.48
2023-01-07T05:08:13.224Z,2.30
2023-01-07T05:10:39.332Z,4.88
2023-01-07T05:13:06.881Z,4.93
2023-01-07T05:15:33.341Z,2.00
2023-01-07T05:17:59.487Z,1.73
2023-01-07T05:20:25.622Z,1.98
2023-01-07T05:22:51.759Z,2.25
2023-01-07T05:25:17.886Z,2.05
2023-01-07T05:27:43.993Z,2.20
2023-01-07T05:30:10.135Z,2.33
2023-01-07T05:32:36.264Z,1.65
2023-01-07T05:35:02.390Z,2.28
2023-01-07T05:37:28.499Z,2.70
2023-01-07T05:39:54.651Z,2.22
2023-01-07T05:42:20.795Z,3.42
2023-01-07T05:44:46.957Z,2.10
2023-01-07T05:47:13.091Z,2.65
2023-01-07T05:49:39.257Z,2.00
2023-01-07T05:52:05.376Z,3.50
2023-01-07T05:54:31.537Z,3.92
2023-01-07T05:56:57.697Z,5.45
2023-01-07T05:59:23.815Z,5.25
2023-01-07T06:01:49.968Z,2.65
2023-01-07T06:04:16.086Z,2.97
2023-01-07T06:06:42.227Z,2.90
2023-01-07T06:09:08.334Z,2.45
2023-01-07T06:11:34.476Z,3.13
2023-01-07T06:14:00.596Z,2.60
2023-01-07T06:16:26.744Z,5.13
2023-01-07T06:18:52.849Z,3.30
2023-01-07T06:21:18.999Z,3.05
2023-01-07T06:23:45.121Z,3.75
2023-01-07T06:26:11.265Z,2.85
2023-01-07T06:28:37.388Z,3.45
2023-01-07T06:31:03.571Z,5.00
2023-01-07T06:33:30.513Z,2.55
2023-01-07T06:35:57.699Z,2.63
2023-01-07T06:38:24.996Z,4.50
2023-01-07T06:40:51.133Z,2.80
2023-01-07T06:43:17.283Z,3.55
2023-01-07T06:45:43.475Z,3.13
2023-01-07T06:48:09.622Z,3.03
2023-01-07T06:50:35.733Z,3.15
2023-01-07T06:53:01.889Z,3.30
2023-01-07T06:55:28.012Z,4.63
2023-01-07T06:57:54.128Z,2.60
2023-01-07T07:00:20.250Z,3.05
2023-01-07T07:02:46.497Z,4.03
2023-01-07T07:05:12.652Z,3.38
2023-01-07T07:07:38.835Z,3.85
2023-01-07T07:10:04.982Z,4.75
2023-01-07T07:12:31.105Z,5.88
2023-01-07T07:14:57.247Z,4.00
2023-01-07T07:17:23.360Z,4.70
2023-01-07T07:19:49.517Z,2.75
2023-01-07T07:22:15.646Z,4.22
2023-01-07T07:24:41.797Z,3.65
2023-01-07T07:27:07.908Z,3.42
2023-01-07T07:29:34.055Z,2.80
2023-01-07T07:32:00.201Z,3.20
2023-01-07T07:34:26.345Z,2.50
2023-01-07T07:36:52.466Z,2.88
2023-01-07T07:39:18.575Z,3.10
2023-01-07T07:41:44.712Z,2.75
2023-01-07T07:44:10.827Z,2.72
2023-01-07T07:46:37.028Z,3.08
2023-01-07T07:49:03.225Z,3.33
2023-01-07T07:51:29.434Z,5.22
2023-01-07T07:53:55.564Z,4.05
2023-01-07T07:56:21.736Z,2.72
2023-01-07T07:58:47.973Z,3.33
2023-01-07T08:01:14.203Z,2.92
2023-01-07T08:03:40.454Z,3.40
2023-01-07T08:06:06.846Z,3.17
2023-01-07T08:08:32.953Z,5.45
2023-01-07T08:10:59.083Z,2.83
2023-01-07T08:13:25.185Z,3.17
2023-01-07T08:15:51.413Z,2.85
2023-01-07T08:18:17.592Z,3.55
2023-01-07T08:20:43.764Z,3.50
2023-01-07T08:23:09.906Z,3.65
2023-01-07T08:25:36.047Z,3.95
2023-01-07T08:28:02.215Z,3.38
2023-01-07T08:30:28.335Z,2.90
2023-01-07T08:32:54.506Z,3.42
2023-01-07T08:35:20.619Z,3.78
2023-01-07T08:37:46.800Z,3.65
2023-01-07T08:40:12.930Z,5.00
2023-01-07T08:42:39.060Z,4.10
2023-01-07T08:45:05.177Z,3.17
2023-01-07T08:47:31.391Z,5.35
2023-01-07T08:49:57.527Z,6.20
2023-01-07T08:52:23.737Z,5.80
2023-01-07T08:54:49.853Z,3.50
2023-01-07T08:57:16.066Z,4.75
2023-01-07T08:59:42.178Z,4.95
2023-01-07T09:02:08.429Z,4.97
2023-01-07T09:04:34.681Z,4.65
2023-01-07T09:07:00.820Z,4.97
2023-01-07T09:09:26.944Z,4.00
2023-01-07T09:11:53.140Z,6.55
2023-01-07T09:14:19.304Z,3.67
2023-01-07T09:16:45.445Z,4.43
2023-01-07T09:19:11.613Z,6.20
2023-01-07T09:21:37.868Z,5.57
2023-01-07T09:24:03.986Z,3.45
2023-01-07T09:26:30.138Z,4.78
2023-01-07T09:28:56.275Z,4.55
2023-01-07T09:31:22.406Z,3.25
2023-01-07T09:33:50.381Z,3.63
2023-01-07T09:36:16.520Z,5.10
2023-01-07T09:38:42.725Z,3.38
2023-01-07T09:41:08.828Z,4.03
2023-01-07T09:44:00.176Z,3.78
2023-01-07T09:46:21.062Z,3.83
2023-01-07T09:48:47.217Z,3.72
2023-01-07T09:51:13.338Z,4.22
2023-01-07T09:53:39.479Z,4.07
2023-01-07T09:56:11.224Z,3.05
2023-01-07T09:58:38.269Z,4.38
2023-01-07T10:01:04.451Z,3.33
2023-01-07T10:03:30.687Z,4.38
2023-01-07T10:05:56.872Z,2.97
2023-01-07T10:08:31.119Z,3.88
2023-01-07T10:10:58.460Z,3.90
2023-01-07T10:13:24.639Z,3.63
2023-01-07T10:15:51.168Z,3.15
2023-01-07T10:18:17.611Z,3.22
2023-01-07T10:20:44.090Z,4.10
2023-01-07T10:23:10.534Z,4.50
2023-01-07T10:25:37.056Z,2.80
2023-01-07T10:28:03.347Z,3.33
2023-01-07T10:30:29.774Z,4.53
2023-01-07T10:32:56.308Z,3.65
2023-01-07T10:35:22.833Z,6.03
2023-01-07T10:37:49.147Z,3.90
2023-01-07T10:40:15.503Z,2.83
2023-01-07T10:42:41.918Z,3.97
2023-01-07T10:45:08.321Z,4.50
2023-01-07T10:47:34.543Z,3.00
2023-01-07T10:50:00.712Z,4.13
2023-01-07T10:52:26.899Z,7.30
2023-01-07T10:54:53.151Z,5.32
2023-01-07T10:57:19.299Z,12.60
2023-01-07T10:59:45.413Z,3.38
2023-01-07T11:02:11.715Z,3.97
2023-01-07T11:04:37.927Z,3.08
2023-01-07T11:07:04.051Z,2.95
2023-01-07T11:09:30.179Z,3.28
2023-01-07T11:11:56.311Z,3.28
2023-01-07T11:14:22.426Z,2.88
2023-01-07T11:16:48.725Z,3.30
2023-01-07T11:19:14.898Z,3.65
2023-01-07T11:21:43.828Z,3.70
2023-01-07T11:24:10.530Z,2.70
2023-01-07T11:26:36.664Z,2.78
2023-01-07T11:29:02.802Z,3.53
2023-01-07T11:31:28.976Z,2.70
2023-01-07T11:34:02.208Z,2.10
2023-01-07T11:36:30.100Z,2.75
2023-01-07T11:38:56.250Z,3.80
2023-01-07T11:41:22.360Z,3.33
2023-01-07T11:43:48.629Z,3.38
2023-01-07T11:46:20.025Z,3.67
2023-01-07T11:48:48.035Z,3.13
2023-01-07T11:51:14.173Z,5.00
2023-01-07T11:53:40.315Z,4.60
2023-01-07T11:56:06.457Z,2.35
2023-01-07T11:58:32.600Z,2.60
2023-01-07T12:00:58.761Z,5.05
2023-01-07T12:03:25.021Z,5.53
2023-01-07T12:05:51.180Z,3.75
2023-01-07T12:08:17.303Z,2.67
2023-01-07T12:10:43.479Z,3.03
2023-01-07T12:13:09.610Z,5.43
2023-01-07T12:15:35.749Z,3.22
2023-01-07T12:18:01.883Z,2.92
2023-01-07T12:20:28.016Z,2.70
2023-01-07T12:22:59.047Z,2.45
2023-01-07T12:25:25.299Z,2.95
2023-01-07T12:27:51.433Z,2.90
2023-01-07T12:30:17.574Z,4.07
2023-01-07T12:32:43.684Z,5.30
2023-01-07T12:35:15.033Z,4.32
2023-01-07T12:37:41.753Z,3.13
2023-01-07T12:40:07.921Z,2.80
2023-01-07T12:42:34.031Z,2.17
2023-01-07T12:45:00.176Z,2.95
2023-01-07T12:47:32.148Z,3.15
2023-01-07T12:49:59.503Z,2.90
2023-01-07T12:52:25.659Z,3.13
2023-01-07T12:54:51.848Z,3.35
2023-01-07T12:57:18.010Z,4.53
2023-01-07T12:59:46.338Z,4.85
2023-01-07T13:02:13.987Z,4.22
2023-01-07T13:04:40.164Z,2.28
2023-01-07T13:07:06.317Z,3.63
2023-01-07T13:09:32.439Z,4.47
2023-01-07T13:11:58.569Z,3.28
2023-01-07T13:14:24.713Z,4.15
2023-01-07T13:16:50.894Z,3.13
2023-01-07T13:19:17.054Z,9.48
2023-01-07T13:21:43.201Z,9.07
2023-01-07T13:24:09.321Z,2.75
2023-01-07T13:26:35.471Z,4.18
2023-01-07T13:29:01.617Z,2.53
2023-01-07T13:31:27.819Z,3.13
2023-01-07T13:33:53.999Z,2.33
2023-01-07T13:36:20.137Z,2.70
2023-01-07T13:38:46.288Z,1.55
2023-01-07T13:41:12.390Z,2.25
2023-01-07T13:43:38.511Z,3.47
2023-01-07T13:46:04.720Z,3.50
2023-01-07T13:48:30.966Z,3.85
2023-01-07T13:50:57.136Z,2.97
2023-01-07T13:53:23.278Z,2.78
2023-01-07T13:55:49.384Z,2.63
2023-01-07T13:58:15.501Z,4.03
2023-01-07T14:00:41.685Z,3.13
2023-01-07T14:03:07.858Z,2.08
2023-01-07T14:05:34.004Z,3.63
2023-01-07T14:08:00.115Z,2.17
2023-01-07T14:10:26.269Z,3.97
2023-01-07T14:12:52.388Z,2.08
2023-01-07T14:15:18.511Z,2.03
2023-01-07T14:17:44.628Z,3.22
2023-01-07T14:20:10.762Z,1.70
2023-01-07T14:22:36.884Z,3.53
2023-01-07T14:25:03.018Z,4.72
2023-01-07T14:27:29.133Z,2.60
2023-01-07T14:29:59.417Z,2.00
2023-01-07T14:32:29.116Z,2.22
2023-01-07T14:34:55.259Z,2.03
2023-01-07T14:37:21.432Z,2.28
2023-01-07T14:39:47.559Z,2.92
2023-01-07T14:42:13.677Z,1.75
2023-01-07T14:44:39.802Z,3.45
2023-01-07T14:47:05.918Z,2.92
2023-01-07T14:49:32.179Z,6.28
2023-01-07T14:51:58.451Z,3.63
2023-01-07T14:54:24.588Z,2.53
2023-01-07T14:56:50.797Z,2.90
2023-01-07T14:59:16.933Z,3.67
2023-01-07T15:01:43.215Z,6.75
2023-01-07T15:04:09.392Z,6.82
2023-01-07T15:06:35.555Z,3.95
2023-01-07T15:09:01.757Z,3.15
2023-01-07T15:11:27.920Z,3.60
2023-01-07T15:13:54.036Z,2.65
2023-01-07T15:16:20.240Z,2.88
2023-01-07T15:18:46.410Z,3.70
2023-01-07T15:21:12.532Z,3.83
2023-01-07T15:23:38.676Z,3.95
2023-01-07T15:26:04.830Z,5.20
2023-01-07T15:28:30.995Z,2.67
2023-01-07T15:30:57.194Z,3.15
2023-01-07T15:33:23.343Z,3.22
2023-01-07T15:35:49.493Z,4.78
2023-01-07T15:38:15.622Z,6.93
2023-01-07T15:40:41.713Z,4.30
2023-01-07T15:43:07.825Z,5.22
2023-01-07T15:45:34.016Z,5.63
2023-01-07T15:48:00.142Z,7.10
2023-01-07T15:50:26.521Z,7.28
2023-01-07T15:52:52.656Z,8.18
2023-01-07T15:55:18.803Z,7.50
2023-01-07T15:57:44.927Z,6.45
2023-01-07T16:00:11.068Z,15.88
2023-01-07T16:02:37.197Z,12.05
2023-01-07T16:05:03.394Z,5.72
2023-01-07T16:07:29.577Z,9.18
2023-01-07T16:09:55.724Z,5.85
2023-01-07T16:12:21.839Z,9.57
2023-01-07T16:14:48.003Z,5.90
2023-01-07T16:17:14.111Z,5.10
2023-01-07T16:19:40.246Z,5.85
2023-01-07T16:22:06.368Z,18.80
2023-01-07T16:24:32.507Z,7.85
2023-01-07T16:26:58.665Z,6.47
2023-01-07T16:29:24.828Z,6.43
2023-01-07T16:31:51.062Z,7.68
2023-01-07T16:34:17.205Z,8.27
2023-01-07T16:36:43.367Z,8.75
2023-01-07T16:39:09.485Z,9.18
2023-01-07T16:41:35.676Z,7.20
2023-01-07T16:44:01.818Z,6.72
2023-01-07T16:46:28.009Z,8.85
2023-01-07T16:48:54.179Z,12.73
2023-01-07T16:51:20.327Z,12.20
2023-01-07T16:53:46.566Z,9.85
2023-01-07T16:56:12.727Z,7.57
2023-01-07T16:58:38.854Z,7.70
2023-01-07T17:01:05.070Z,6.43
2023-01-07T17:03:31.429Z,8.55
2023-01-07T17:05:57.608Z,6.22
2023-01-07T17:08:23.747Z,6.93
2023-01-07T17:10:49.864Z,7.53
2023-01-07T17:13:16.027Z,8.88
2023-01-07T17:15:42.141Z,10.85
2023-01-07T17:18:08.271Z,12.18
2023-01-07T17:20:34.386Z,11.23
2023-01-07T17:23:00.524Z,12.43
2023-01-07T17:25:26.682Z,14.85
2023-01-07T17:27:52.851Z,15.10
2023-01-07T17:30:19.007Z,14.20
2023-01-07T17:32:45.137Z,10.95
2023-01-07T17:35:11.257Z,9.15
2023-01-07T17:37:37.384Z,10.80
2023-01-07T17:40:03.525Z,10.68
2023-01-07T17:42:29.663Z,12.27
2023-01-07T17:44:55.782Z,10.57
2023-01-07T17:47:21.956Z,16.40
2023-01-07T17:49:48.092Z,10.98
2023-01-07T17:52:14.210Z,9.27
2023-01-07T17:54:40.348Z,10.40
2023-01-07T17:57:06.465Z,11.40
2023-01-07T17:59:32.613Z,13.05
2023-01-07T18:01:58.920Z,14.00
2023-01-07T18:04:25.227Z,18.30
2023-01-07T18:06:51.348Z,32.22
2023-01-07T18:09:17.481Z,17.42
2023-01-07T18:11:43.620Z,17.08
2023-01-07T18:14:09.751Z,13.60
2023-01-07T18:16:35.958Z,15.40
2023-01-07T18:19:02.106Z,18.58
2023-01-07T18:21:28.244Z,15.48
2023-01-07T18:23:54.414Z,12.32
2023-01-07T18:26:20.527Z,13.40
2023-01-07T18:28:46.713Z,11.85
2023-01-07T18:31:12.889Z,12.27
2023-01-07T18:33:39.124Z,9.48
2023-01-07T18:36:05.256Z,11.13
2023-01-07T18:38:31.399Z,13.00
2023-01-07T18:40:57.544Z,16.63
2023-01-07T18:43:23.733Z,17.95
2023-01-07T18:45:49.946Z,25.27
2023-01-07T18:48:16.104Z,29.92
2023-01-07T18:50:42.336Z,31.70
2023-01-07T18:53:08.456Z,28.20
2023-01-07T18:55:34.620Z,28.00
2023-01-07T18:58:00.741Z,19.42
2023-01-07T19:00:26.873Z,20.27
2023-01-07T19:02:53.024Z,15.05
2023-01-07T19:05:19.167Z,11.77
2023-01-07T19:07:45.299Z,12.45
2023-01-07T19:10:11.459Z,14.35
2023-01-07T19:12:37.612Z,14.80
2023-01-07T19:15:03.790Z,9.63
2023-01-07T19:17:29.896Z,11.93
2023-01-07T19:19:56.027Z,9.82
2023-01-07T19:22:22.207Z,12.90
2023-01-07T19:24:48.354Z,9.93
2023-01-07T19:27:14.519Z,11.63
2023-01-07T19:29:40.645Z,11.88
2023-01-07T19:32:06.936Z,11.65
2023-01-07T19:34:33.099Z,10.85
2023-01-07T19:36:59.232Z,8.25
2023-01-07T19:39:25.369Z,10.05
2023-01-07T19:41:51.519Z,14.90
2023-01-07T19:44:17.638Z,8.98
2023-01-07T19:46:43.803Z,9.52
2023-01-07T19:49:10.047Z,9.02
2023-01-07T19:51:36.209Z,9.57
2023-01-07T19:54:02.332Z,10.00
2023-01-07T19:56:28.470Z,9.32
2023-01-07T19:58:54.744Z,9.77
2023-01-07T20:01:21.262Z,7.82
2023-01-07T20:03:47.439Z,9.82
2023-01-07T20:06:13.576Z,12.43
2023-01-07T20:08:39.730Z,9.80
2023-01-07T20:11:05.885Z,10.40
2023-01-07T20:13:32.147Z,10.23
2023-01-07T20:15:58.259Z,10.50
2023-01-07T20:18:24.400Z,10.32
2023-01-07T20:20:50.532Z,10.85
2023-01-07T20:23:16.665Z,9.93
2023-01-07T20:25:42.794Z,8.45
2023-01-07T20:28:08.925Z,10.00
2023-01-07T20:30:35.035Z,9.70
2023-01-07T20:33:01.240Z,10.18
2023-01-07T20:35:27.357Z,8.68
2023-01-07T20:37:53.757Z,7.85
2023-01-07T20:40:19.900Z,7.50
2023-01-07T20:42:46.133Z,9.55
2023-01-07T20:45:12.304Z,7.97
2023-01-07T20:47:38.700Z,9.48
2023-01-07T20:50:04.858Z,6.45
2023-01-07T20:52:31.790Z,6.75
2023-01-07T20:54:58.427Z,6.63
2023-01-07T20:57:26.853Z,9.32
2023-01-07T20:59:53.110Z,8.70
2023-01-07T21:05:00.455Z,7.10
2023-01-07T21:07:28.883Z,9.57
2023-01-07T21:09:55.422Z,6.72
2023-01-07T21:12:21.665Z,7.85
2023-01-07T21:14:48.072Z,8.27
2023-01-07T21:17:14.801Z,7.00
2023-01-07T21:19:41.528Z,8.98
2023-01-07T21:22:09.011Z,9.07
2023-01-07T21:24:35.266Z,9.07
2023-01-07T21:27:05.950Z,9.60
2023-01-07T21:29:32.741Z,8.32
2023-01-07T21:31:59.323Z,6.93
2023-01-07T21:34:26.959Z,8.30
2023-01-07T21:37:02.917Z,9.52
2023-01-07T21:42:11.654Z,7.30
2023-01-07T21:44:39.255Z,9.38
2023-01-07T21:47:15.084Z,8.00
2023-01-07T21:49:43.927Z,6.47
2023-01-07T21:55:00.812Z,9.60
2023-01-07T21:57:37.676Z,13.18
2023-01-07T22:00:05.012Z,10.02
2023-01-07T22:05:22.874Z,7.75
2023-01-07T22:07:49.013Z,6.13
2023-01-07T22:10:15.189Z,5.47
2023-01-07T22:12:41.328Z,5.80
2023-01-07T22:15:07.722Z,9.95
2023-01-07T22:17:33.839Z,10.07
2023-01-07T22:19:59.971Z,10.25
2023-01-07T22:22:26.098Z,12.20
2023-01-07T22:24:52.209Z,13.07
2023-01-07T22:27:18.344Z,7.47
2023-01-07T22:29:44.465Z,8.40
2023-01-07T22:32:10.738Z,10.77
2023-01-07T22:34:36.864Z,7.38
2023-01-07T22:37:03.015Z,10.20
2023-01-07T22:39:29.201Z,13.10
2023-01-07T22:41:56.251Z,8.05
2023-01-07T22:44:22.482Z,7.53
2023-01-07T22:46:48.616Z,9.05
2023-01-07T22:49:14.748Z,6.22
2023-01-07T22:51:40.888Z,7.90
2023-01-07T22:54:06.992Z,9.48
2023-01-07T22:56:33.123Z,8.75
2023-01-07T22:58:59.235Z,8.07
2023-01-07T23:01:25.670Z,8.75
2023-01-07T23:03:51.951Z,6.97
2023-01-07T23:06:18.188Z,9.45
2023-01-07T23:08:44.320Z,5.97
2023-01-07T23:11:10.870Z,10.77
2023-01-07T23:13:37.027Z,7.55
2023-01-07T23:16:03.182Z,8.75
2023-01-07T23:18:29.404Z,9.23
2023-01-07T23:20:55.541Z,5.35
2023-01-07T23:23:21.684Z,8.30
2023-01-07T23:25:47.837Z,8.35
2023-01-07T23:28:14.135Z,8.77
2023-01-07T23:30:40.261Z,8.13
2023-01-07T23:33:06.408Z,9.10
2023-01-07T23:35:32.516Z,7.82
2023-01-07T23:37:58.677Z,6.50
2023-01-07T23:40:26.653Z,5.05
2023-01-07T23:42:52.806Z,5.88
2023-01-07T23:45:19.004Z,5.10
2023-01-07T23:47:45.150Z,7.47
2023-01-07T23:50:11.267Z,6.55
2023-01-07T23:52:37.396Z,5.18
2023-01-07T23:55:03.533Z,4.88
2023-01-07T23:57:29.637Z,6.18
2023-01-07T23:59:55.768Z,5.82
